Time;durP1;ratioP1;P1;durP2;ratioP2;P2;SDS_P1;SDS_P2;PMS_P1;PMS_P2;Temp;Humidity;BMP_temperature;BMP_pressure;BME280_temperature;BME280_humidity;BME280_pressure;Samples;Min_cycle;Max_cycle;Signal;HPM_P1;HPM_P2
2022/09/25 00:01:05;;;;;;;6.95;5.32;;;11.20;99.90;;;;;;5202812;28;20032;-73
2022/09/25 00:03:37;;;;;;;6.47;5.32;;;11.20;99.90;;;;;;5200783;28;20021;-72
2022/09/25 00:06:12;;;;;;;8.75;5.32;;;11.20;99.90;;;;;;5203854;28;20040;-73
2022/09/25 00:08:45;;;;;;;6.65;4.85;;;11.20;99.90;;;;;;5177788;28;20056;-72
2022/09/25 00:11:20;;;;;;;7.03;4.88;;;11.30;99.90;;;;;;5195199;28;20217;-72
2022/09/25 00:13:52;;;;;;;5.68;4.47;;;11.30;99.90;;;;;;5198928;28;20378;-73
2022/09/25 00:16:27;;;;;;;6.00;5.05;;;11.40;99.90;;;;;;5200048;28;20025;-72
2022/09/25 00:21:54;;;;;;;6.35;5.03;;;11.50;99.90;;;;;;5178663;28;20040;-73
2022/09/25 00:24:25;;;;;;;5.95;4.78;;;11.50;99.90;;;;;;5182081;28;20025;-73
2022/09/25 00:27:00;;;;;;;5.90;5.22;;;11.60;99.90;;;;;;5181375;28;20021;-72
2022/09/25 00:29:32;;;;;;;;;;;11.60;99.90;;;;;;5196119;28;20033;-73
2022/09/25 00:32:10;;;;;;;6.32;4.97;;;11.60;99.90;;;;;;5196957;28;20008;-72
2022/09/25 00:34:45;;;;;;;4.90;4.40;;;11.60;99.90;;;;;;5199073;28;20045;-73
2022/09/25 00:37:16;;;;;;;5.93;5.03;;;11.60;99.90;;;;;;5196692;28;20025;-73
2022/09/25 00:39:47;;;;;;;6.40;5.47;;;11.60;99.90;;;;;;5172766;28;20033;-73
2022/09/25 00:42:20;;;;;;;6.72;5.25;;;11.70;99.90;;;;;;5198797;28;20063;-73
2022/09/25 00:45:00;;;;;;;7.18;4.88;;;11.60;99.90;;;;;;5196621;28;20017;-72
2022/09/25 00:47:54;;;;;;;6.22;4.43;;;11.60;99.90;;;;;;5198022;28;20025;-72
2022/09/25 00:50:50;;;;;;;11.05;5.03;;;11.70;99.90;;;;;;5185188;28;20345;-73
2022/09/25 00:53:31;;;;;;;7.55;5.20;;;11.70;99.90;;;;;;5184261;28;20030;-73
2022/09/25 00:56:06;;;;;;;6.20;4.78;;;11.60;99.90;;;;;;5197790;28;20037;-73
2022/09/25 00:58:39;;;;;;;6.47;4.80;;;11.60;99.90;;;;;;5196613;28;20013;-73
2022/09/25 01:01:13;;;;;;;6.30;4.85;;;11.50;99.90;;;;;;5195572;28;20045;-73
2022/09/25 01:03:45;;;;;;;;;;;11.40;99.90;;;;;;5198888;28;20040;-72
2022/09/25 01:06:17;;;;;;;6.95;4.97;;;11.40;99.90;;;;;;5182852;28;19923;-72
2022/09/25 01:08:49;;;;;;;7.13;5.40;;;11.30;99.90;;;;;;5199097;28;20035;-73
2022/09/25 01:11:22;;;;;;;7.80;5.65;;;11.30;99.90;;;;;;5199395;28;20043;-73
2022/09/25 01:13:55;;;;;;;9.93;6.15;;;11.30;99.90;;;;;;5197722;28;20030;-73
2022/09/25 01:16:49;;;;;;;6.70;5.70;;;11.20;99.90;;;;;;5195444;28;20379;-73
2022/09/25 01:19:57;;;;;;;6.50;5.78;;;11.20;99.90;;;;;;5197099;28;20041;-73
2022/09/25 01:22:37;;;;;;;10.00;6.60;;;11.20;99.90;;;;;;5195100;28;20055;-73
2022/09/25 01:25:24;;;;;;;10.45;7.32;;;11.20;99.90;;;;;;5197345;28;20017;-73
2022/09/25 01:28:40;;;;;;;9.48;6.82;;;11.30;99.90;;;;;;5188322;28;20036;-73
2022/09/25 01:31:23;;;;;;;9.23;7.13;;;11.40;99.90;;;;;;5176720;28;20338;-72
2022/09/25 01:33:59;;;;;;;10.32;6.22;;;11.40;99.90;;;;;;5187059;28;20339;-72
2022/09/25 01:36:46;;;;;;;8.50;6.93;;;11.30;99.90;;;;;;5184296;28;20052;-72
2022/09/25 01:39:29;;;;;;;8.35;6.53;;;11.30;99.90;;;;;;5195095;28;20028;-73
2022/09/25 01:42:16;;;;;;;9.00;6.10;;;11.30;99.90;;;;;;5195200;28;20063;-73
2022/09/25 01:45:01;;;;;;;7.97;6.68;;;11.30;99.90;;;;;;5196887;28;20021;-73
2022/09/25 01:47:37;;;;;;;9.20;6.57;;;11.20;99.90;;;;;;5193534;28;20052;-72
2022/09/25 01:50:41;;;;;;;9.93;7.80;;;11.20;99.90;;;;;;5189323;28;20338;-73
2022/09/25 01:53:20;;;;;;;8.95;6.55;;;11.30;99.90;;;;;;5167416;28;20038;-72
2022/09/25 01:56:00;;;;;;;9.88;7.18;;;11.30;99.90;;;;;;5160931;28;20025;-73
2022/09/25 01:58:38;;;;;;;10.88;6.75;;;11.40;99.90;;;;;;5158368;28;20030;-72
2022/09/25 02:01:15;;;;;;;9.15;6.93;;;11.40;99.90;;;;;;5173454;28;20026;-72
2022/09/25 02:04:00;;;;;;;9.52;6.72;;;11.50;99.90;;;;;;5169074;28;20525;-72
2022/09/25 02:06:32;;;;;;;9.40;7.07;;;11.40;99.90;;;;;;5170136;28;20067;-72
2022/09/25 02:09:12;;;;;;;9.13;7.22;;;11.40;99.90;;;;;;5177562;28;20037;-73
2022/09/25 02:11:49;;;;;;;10.88;7.15;;;11.40;99.90;;;;;;5193669;28;20033;-72
2022/09/25 02:14:26;;;;;;;9.82;7.60;;;11.40;99.90;;;;;;5194280;28;20047;-72
2022/09/25 02:17:00;;;;;;;8.93;6.90;;;11.40;99.90;;;;;;5177097;28;20056;-73
2022/09/25 02:22:34;;;;;;;9.70;6.90;;;11.50;99.90;;;;;;5181985;28;20042;-73
2022/09/25 02:25:37;;;;;;;10.67;7.20;;;11.50;99.90;;;;;;5169120;28;20346;-73
2022/09/25 02:28:11;;;;;;;9.70;7.22;;;11.50;99.90;;;;;;5176581;28;20045;-74
2022/09/25 02:30:44;;;;;;;8.90;7.68;;;11.60;99.90;;;;;;5161510;28;20030;-74
2022/09/25 02:33:16;;;;;;;9.48;7.70;;;11.60;99.90;;;;;;5171986;28;20125;-74
2022/09/25 02:35:50;;;;;;;10.02;7.13;;;11.60;99.90;;;;;;5175448;28;20391;-72
2022/09/25 02:38:24;;;;;;;10.40;7.13;;;11.60;99.90;;;;;;5174309;28;20036;-73
2022/09/25 02:41:08;;;;;;;12.83;8.73;;;11.70;99.90;;;;;;5177472;28;20505;-73
2022/09/25 02:44:22;;;;;;;13.80;8.17;;;11.70;99.90;;;;;;5176498;28;20040;-72
2022/09/25 02:47:02;;;;;;;12.23;8.57;;;11.70;99.90;;;;;;5175123;28;20037;-72
2022/09/25 02:49:53;;;;;;;10.18;8.13;;;11.60;99.90;;;;;;5173107;28;20052;-73
2022/09/25 02:52:35;;;;;;;9.65;8.48;;;11.70;99.90;;;;;;5175195;28;20033;-74
2022/09/25 02:55:14;;;;;;;11.65;8.27;;;11.60;99.90;;;;;;5174238;28;20038;-74
2022/09/25 02:58:11;;;;;;;10.45;8.07;;;11.60;99.90;;;;;;5174551;28;20155;-74
2022/09/25 03:00:49;;;;;;;11.20;8.25;;;11.60;99.90;;;;;;5172968;28;20048;-74
2022/09/25 03:03:23;;;;;;;11.57;7.95;;;11.50;99.90;;;;;;5171376;28;20057;-73
2022/09/25 03:05:59;;;;;;;10.70;8.63;;;11.50;99.90;;;;;;5176391;28;20504;-73
2022/09/25 03:08:38;;;;;;;11.07;8.80;;;11.40;99.90;;;;;;5178066;28;20021;-72
2022/09/25 03:11:14;;;;;;;14.30;8.77;;;11.30;99.90;;;;;;5178734;28;20038;-72
2022/09/25 03:13:54;;;;;;;12.88;9.30;;;11.20;99.90;;;;;;5175451;28;20037;-73
2022/09/25 03:16:51;;;;;;;14.05;9.35;;;11.30;99.90;;;;;;5175582;28;20049;-73
2022/09/25 03:19:28;;;;;;;13.40;9.25;;;11.20;99.90;;;;;;5167014;28;20026;-72
2022/09/25 03:22:04;;;;;;;12.30;9.00;;;11.30;99.90;;;;;;5155536;28;20036;-74
2022/09/25 03:24:43;;;;;;;12.23;8.70;;;11.20;99.90;;;;;;5154130;28;20022;-72
2022/09/25 03:27:20;;;;;;;13.02;9.75;;;11.20;99.90;;;;;;5141667;28;20037;-72
2022/09/25 03:29:52;;;;;;;12.20;9.38;;;11.20;99.90;;;;;;5173621;28;20514;-73
2022/09/25 03:32:26;;;;;;;13.35;9.07;;;11.20;99.90;;;;;;5157062;28;20482;-72
2022/09/25 03:35:00;;;;;;;12.50;9.52;;;11.20;99.90;;;;;;5175436;28;20033;-74
2022/09/25 03:37:32;;;;;;;12.00;9.10;;;11.20;99.90;;;;;;5174605;28;20365;-73
2022/09/25 03:40:06;;;;;;;13.50;10.05;;;11.20;99.90;;;;;;5171181;28;20033;-74
2022/09/25 03:42:37;;;;;;;12.20;8.80;;;11.30;99.90;;;;;;5175149;28;20437;-73
2022/09/25 03:45:11;;;;;;;13.13;10.07;;;11.30;99.90;;;;;;5175389;28;20026;-72
2022/09/25 03:47:42;;;;;;;13.95;9.27;;;11.30;99.90;;;;;;5174467;28;20036;-73
2022/09/25 03:50:13;;;;;;;15.20;9.93;;;11.30;99.90;;;;;;5175582;28;20045;-72
2022/09/25 03:52:45;;;;;;;14.90;9.40;;;11.20;99.90;;;;;;5176120;28;20034;-73
2022/09/25 03:55:19;;;;;;;11.63;8.65;;;11.20;99.90;;;;;;5175420;28;20038;-73
2022/09/25 03:57:53;;;;;;;14.95;10.00;;;11.20;99.90;;;;;;5174545;28;20040;-72
2022/09/25 04:00:24;;;;;;;14.85;9.82;;;11.20;99.90;;;;;;5172166;28;20045;-74
2022/09/25 04:02:58;;;;;;;12.35;9.23;;;11.20;99.90;;;;;;5174175;28;20056;-74
2022/09/25 04:05:29;;;;;;;17.05;9.48;;;11.10;99.90;;;;;;5188322;28;20053;-74
2022/09/25 04:08:00;;;;;;;12.55;10.07;;;11.00;99.90;;;;;;5192908;28;20068;-73
2022/09/25 04:10:33;;;;;;;14.50;10.52;;;11.00;99.90;;;;;;5198435;28;20029;-74
2022/09/25 04:13:11;;;;;;;14.77;9.88;;;11.10;99.90;;;;;;5191730;28;20037;-73
2022/09/25 04:15:45;;;;;;;14.63;10.27;;;11.10;99.90;;;;;;5190045;28;20048;-73
2022/09/25 04:18:18;;;;;;;14.30;10.43;;;11.10;99.90;;;;;;5194161;28;20021;-74
2022/09/25 04:20:50;;;;;;;12.68;9.77;;;11.00;99.90;;;;;;5193467;28;20071;-74
2022/09/25 04:23:22;;;;;;;12.52;9.98;;;11.00;99.90;;;;;;5186492;28;20237;-73
2022/09/25 04:25:53;;;;;;;12.75;9.63;;;11.00;99.90;;;;;;5189697;28;20018;-74
2022/09/25 04:28:25;;;;;;;13.93;10.40;;;11.00;99.90;;;;;;5197205;28;20009;-74
2022/09/25 04:31:00;;;;;;;15.10;9.95;;;11.00;99.90;;;;;;5184028;28;20046;-73
2022/09/25 04:33:47;;;;;;;12.50;9.52;;;11.00;99.90;;;;;;5190094;28;20025;-75
2022/09/25 04:36:20;;;;;;;15.25;10.18;;;11.00;99.90;;;;;;5167339;28;20050;-74
2022/09/25 04:38:54;;;;;;;11.32;9.45;;;10.90;99.90;;;;;;5198002;28;20029;-73
2022/09/25 04:41:32;;;;;;;14.07;10.10;;;10.90;99.90;;;;;;5197740;28;20047;-73
2022/09/25 04:44:04;;;;;;;16.75;10.98;;;10.90;99.90;;;;;;5188492;28;20022;-74
2022/09/25 04:46:36;;;;;;;12.32;9.20;;;10.80;99.90;;;;;;5184938;28;20029;-74
2022/09/25 04:49:13;;;;;;;13.40;10.13;;;10.80;99.90;;;;;;5196457;28;20024;-74
2022/09/25 04:51:44;;;;;;;16.58;10.80;;;10.80;99.90;;;;;;5197850;28;20032;-74
2022/09/25 04:54:18;;;;;;;13.65;10.48;;;10.70;99.90;;;;;;5196294;28;20041;-74
2022/09/25 04:56:49;;;;;;;14.10;10.50;;;10.70;99.90;;;;;;5196008;28;20048;-73
2022/09/25 04:59:21;;;;;;;19.10;11.63;;;10.70;99.90;;;;;;5195596;28;20030;-73
2022/09/25 05:01:52;;;;;;;14.85;10.13;;;10.70;99.90;;;;;;5198544;28;20040;-74
2022/09/25 05:04:23;;;;;;;14.18;10.45;;;10.70;99.90;;;;;;5182084;28;20037;-74
2022/09/25 05:06:56;;;;;;;18.50;10.38;;;10.70;99.90;;;;;;5159772;28;20437;-74
2022/09/25 05:09:30;;;;;;;13.73;9.80;;;10.70;99.90;;;;;;5169568;28;20034;-74
2022/09/25 05:12:01;;;;;;;17.02;10.10;;;10.60;99.90;;;;;;5152112;28;20031;-75
2022/09/25 05:14:33;;;;;;;15.57;10.82;;;10.70;99.90;;;;;;5162936;28;20040;-75
2022/09/25 05:17:05;;;;;;;16.52;11.27;;;10.70;99.90;;;;;;5175746;28;20024;-73
2022/09/25 05:19:39;;;;;;;13.98;10.18;;;10.70;99.90;;;;;;5177588;28;20870;-73
2022/09/25 05:22:16;;;;;;;14.25;10.77;;;10.80;99.90;;;;;;5174533;28;20021;-72
2022/09/25 05:24:47;;;;;;;13.20;9.60;;;10.80;99.90;;;;;;5172988;28;20041;-72
2022/09/25 05:27:20;;;;;;;13.88;9.80;;;10.80;99.90;;;;;;5174587;28;20017;-73
2022/09/25 05:29:51;;;;;;;13.65;9.70;;;10.90;99.90;;;;;;5174967;28;20022;-74
2022/09/25 05:32:29;;;;;;;14.82;9.77;;;11.00;99.90;;;;;;5178831;28;20028;-74
2022/09/25 05:35:02;;;;;;;12.65;9.70;;;11.10;99.90;;;;;;5175700;28;20084;-72
2022/09/25 05:37:33;;;;;;;11.25;8.75;;;11.20;99.90;;;;;;5175029;28;20026;-74
2022/09/25 05:40:05;;;;;;;10.13;8.48;;;11.20;99.90;;;;;;5176938;28;20035;-74
2022/09/25 05:42:39;;;;;;;12.27;9.63;;;11.30;99.90;;;;;;5173240;28;20040;-74
2022/09/25 05:45:13;;;;;;;12.98;8.73;;;11.40;99.90;;;;;;5161058;28;20044;-74
2022/09/25 05:47:47;;;;;;;10.60;8.40;;;11.40;99.90;;;;;;5172902;28;20026;-72
2022/09/25 05:50:19;;;;;;;12.75;8.55;;;11.40;99.90;;;;;;5174743;28;20391;-72
2022/09/25 05:52:55;;;;;;;12.13;8.80;;;11.60;99.90;;;;;;5171434;28;20049;-71
2022/09/25 05:55:27;;;;;;;10.43;8.45;;;11.60;99.90;;;;;;5173481;28;20030;-73
2022/09/25 05:58:01;;;;;;;10.25;8.77;;;11.70;99.90;;;;;;5174151;28;20021;-72
2022/09/25 06:00:34;;;;;;;9.88;8.73;;;11.80;99.90;;;;;;5173339;28;20029;-73
2022/09/25 06:03:06;;;;;;;11.13;8.55;;;11.90;99.90;;;;;;5176362;28;20463;-72
2022/09/25 06:05:39;;;;;;;11.50;9.13;;;12.10;99.90;;;;;;5173204;28;20053;-72
2022/09/25 06:08:11;;;;;;;12.40;9.57;;;12.30;99.90;;;;;;5176953;28;20021;-72
2022/09/25 06:10:42;;;;;;;13.25;8.75;;;12.40;99.90;;;;;;5173216;28;20533;-72
2022/09/25 06:13:14;;;;;;;13.73;8.90;;;12.50;99.90;;;;;;5173718;28;20018;-73
2022/09/25 06:15:50;;;;;;;12.95;9.57;;;12.60;99.90;;;;;;5175015;28;20392;-72
2022/09/25 06:18:27;;;;;;;15.80;9.00;;;12.60;99.90;;;;;;5171477;28;20032;-73
2022/09/25 06:21:04;;;;;;;12.70;9.07;;;12.60;99.90;;;;;;5170608;28;20045;-72
2022/09/25 06:23:35;;;;;;;13.52;9.57;;;12.70;99.90;;;;;;5173181;28;20030;-72
2022/09/25 06:26:08;;;;;;;13.05;9.48;;;12.80;99.90;;;;;;5175263;28;20025;-72
2022/09/25 06:28:39;;;;;;;11.07;8.23;;;12.90;99.90;;;;;;5173719;28;20025;-72
2022/09/25 06:31:10;;;;;;;10.57;8.77;;;13.00;99.90;;;;;;5174825;28;20013;-72
2022/09/25 06:33:45;;;;;;;10.75;8.18;;;13.00;99.90;;;;;;5174641;28;20024;-73
2022/09/25 06:36:16;;;;;;;9.77;8.50;;;13.10;99.90;;;;;;5172479;28;20547;-73
2022/09/25 06:38:56;;;;;;;9.70;8.35;;;13.20;99.90;;;;;;5173807;28;20022;-73
2022/09/25 06:41:29;;;;;;;10.13;7.93;;;13.30;99.90;;;;;;5175274;28;20025;-73
2022/09/25 06:44:04;;;;;;;9.98;7.82;;;13.40;99.90;;;;;;5173299;28;20068;-73
2022/09/25 06:46:38;;;;;;;10.20;7.63;;;13.60;99.90;;;;;;5174058;28;20041;-73
2022/09/25 06:49:12;;;;;;;12.27;8.35;;;13.80;99.90;;;;;;5171304;28;20028;-73
2022/09/25 06:51:50;;;;;;;9.40;7.50;;;13.80;99.90;;;;;;5172725;28;20110;-73
2022/09/25 06:54:21;;;;;;;8.68;7.78;;;13.80;99.90;;;;;;5172863;28;20030;-73
2022/09/25 06:56:55;;;;;;;8.93;7.32;;;13.90;99.90;;;;;;5173771;28;20029;-73
2022/09/25 06:59:29;;;;;;;10.13;7.70;;;14.20;99.90;;;;;;5176898;28;20032;-73
2022/09/25 07:03:43;;;;;;;9.75;7.72;;;14.30;99.90;;;;;;5172827;28;20520;-73
2022/09/25 07:04:51;;;;;;;13.65;8.65;;;14.40;99.90;;;;;;5160036;28;20199;-73
2022/09/25 07:07:25;;;;;;;11.13;8.20;;;14.40;99.90;;;;;;5206415;28;20193;-73
2022/09/25 07:10:00;;;;;;;11.68;9.30;;;14.50;99.90;;;;;;5198614;28;20023;-73
2022/09/25 07:12:33;;;;;;;9.73;8.13;;;14.70;99.90;;;;;;5180407;28;20235;-72
2022/09/25 07:15:05;;;;;;;11.88;8.35;;;14.70;99.90;;;;;;5201042;28;20043;-73
2022/09/25 07:17:43;;;;;;;9.82;7.38;;;15.00;99.90;;;;;;5198877;28;20033;-75
2022/09/25 07:20:17;;;;;;;9.25;7.65;;;15.10;99.90;;;;;;5198416;28;20029;-73
2022/09/25 07:22:53;;;;;;;11.33;8.30;;;15.30;99.90;;;;;;5178809;28;20033;-72
2022/09/25 07:25:24;;;;;;;8.88;7.22;;;15.30;99.90;;;;;;5194576;28;20030;-74
2022/09/25 07:27:56;;;;;;;11.63;8.55;;;15.40;99.90;;;;;;5192184;28;20029;-75
2022/09/25 07:30:28;;;;;;;10.75;8.13;;;15.40;99.90;;;;;;5186178;28;20063;-73
2022/09/25 07:33:04;;;;;;;10.27;7.30;;;15.60;99.90;;;;;;5185570;28;20034;-72
2022/09/25 07:35:36;;;;;;;10.05;7.63;;;15.70;99.90;;;;;;5185748;28;20407;-73
2022/09/25 07:38:07;;;;;;;8.45;6.93;;;15.70;99.90;;;;;;5185794;28;20721;-72
2022/09/25 07:40:41;;;;;;;8.32;7.35;;;15.80;99.90;;;;;;5185433;28;20030;-72
2022/09/25 07:43:12;;;;;;;9.38;7.28;;;15.80;99.90;;;;;;5194922;28;20134;-72
2022/09/25 07:45:53;;;;;;;9.27;7.70;;;15.80;99.90;;;;;;5180866;28;20051;-72
2022/09/25 07:48:29;;;;;;;8.80;7.80;;;15.60;99.90;;;;;;5198786;28;20025;-74
2022/09/25 07:51:09;;;;;;;11.32;7.47;;;15.60;99.90;;;;;;5194461;28;20033;-72
2022/09/25 07:53:44;;;;;;;10.95;7.55;;;15.70;99.90;;;;;;5191626;28;20040;-72
2022/09/25 07:56:16;;;;;;;10.95;7.78;;;15.70;99.90;;;;;;5181360;28;20045;-73
2022/09/25 07:58:53;;;;;;;11.80;7.82;;;15.80;99.90;;;;;;5197771;28;20036;-73
2022/09/25 08:01:26;;;;;;;9.65;7.82;;;16.00;99.90;;;;;;5198575;28;20021;-73
2022/09/25 08:04:03;;;;;;;9.70;8.33;;;15.80;99.90;;;;;;5197072;28;20029;-73
2022/09/25 08:06:35;;;;;;;10.57;7.65;;;16.10;99.90;;;;;;5173178;28;20287;-73
2022/09/25 08:09:11;;;;;;;8.88;7.72;;;16.20;99.90;;;;;;5181198;28;20503;-72
2022/09/25 08:11:43;;;;;;;8.23;7.07;;;16.40;99.90;;;;;;5183523;28;20040;-74
2022/09/25 08:14:14;;;;;;;8.73;7.43;;;16.40;99.90;;;;;;5198038;28;20041;-74
2022/09/25 08:16:46;;;;;;;10.75;7.82;;;16.30;99.90;;;;;;5194562;28;20037;-72
2022/09/25 08:19:22;;;;;;;11.32;7.80;;;16.30;99.90;;;;;;5194999;28;20037;-72
2022/09/25 08:21:53;;;;;;;9.07;7.28;;;16.40;99.90;;;;;;5202967;28;20013;-72
2022/09/25 08:24:25;;;;;;;12.43;7.28;;;16.20;99.90;;;;;;5201827;28;20021;-72
2022/09/25 08:26:56;;;;;;;11.32;7.15;;;16.20;99.90;;;;;;5182975;28;20045;-72
2022/09/25 08:29:30;;;;;;;10.10;7.70;;;16.30;99.90;;;;;;5196557;28;20033;-72
2022/09/25 08:32:01;;;;;;;10.45;8.15;;;16.20;99.90;;;;;;5201281;28;20041;-73
2022/09/25 08:34:35;;;;;;;9.88;7.63;;;16.20;99.90;;;;;;5197631;28;20041;-72
2022/09/25 08:37:07;;;;;;;10.98;8.05;;;16.00;99.90;;;;;;5201698;28;20032;-72
2022/09/25 08:39:40;;;;;;;11.93;9.13;;;16.00;99.90;;;;;;5187612;28;20025;-72
2022/09/25 08:42:19;;;;;;;9.70;8.60;;;16.10;99.90;;;;;;5193196;28;20022;-74
2022/09/25 08:49:00;;;;;;;11.18;7.57;;;15.90;99.90;;;;;;5188146;28;20231;-73
2022/09/25 08:50:36;;;;;;;10.07;8.18;;;16.10;99.90;;;;;;5197362;28;20032;-72
2022/09/25 08:53:21;;;;;;;12.05;8.48;;;16.20;99.90;;;;;;5185862;28;20713;-72
2022/09/25 08:56:13;;;;;;;10.95;8.70;;;16.00;99.90;;;;;;5198157;28;20026;-73
2022/09/25 08:58:49;;;;;;;12.32;8.65;;;15.70;99.90;;;;;;5197370;28;20065;-72
2022/09/25 09:01:27;;;;;;;8.73;7.82;;;15.50;99.90;;;;;;5194022;28;20045;-72
2022/09/25 09:04:08;;;;;;;11.38;8.18;;;15.30;99.90;;;;;;5198787;28;20044;-72
2022/09/25 09:06:42;;;;;;;9.15;7.35;;;15.50;99.90;;;;;;5187453;28;20049;-72
2022/09/25 09:09:32;;;;;;;10.18;8.15;;;15.70;99.90;;;;;;5198029;28;20029;-74
2022/09/25 09:12:17;;;;;;;11.75;8.35;;;15.80;99.90;;;;;;5197089;28;20037;-72
2022/09/25 09:14:55;;;;;;;8.07;6.50;;;16.00;99.90;;;;;;5187902;28;20030;-72
2022/09/25 09:17:27;;;;;;;8.52;7.63;;;16.30;99.90;;;;;;5191975;28;20033;-71
2022/09/25 09:20:14;;;;;;;10.20;7.45;;;16.30;99.90;;;;;;5180213;28;20239;-72
2022/09/25 09:22:52;;;;;;;10.77;7.82;;;16.20;99.90;;;;;;5196424;28;20047;-72
2022/09/25 09:25:35;;;;;;;9.32;7.18;;;16.00;99.90;;;;;;5197919;28;20376;-73
2022/09/25 09:28:41;;;;;;;10.95;8.00;;;15.80;99.90;;;;;;5184757;28;20034;-73
2022/09/25 09:31:22;;;;;;;8.88;7.45;;;15.90;99.90;;;;;;5168804;28;20045;-72
2022/09/25 09:34:26;;;;;;;9.02;7.15;;;16.10;99.90;;;;;;5191278;28;20033;-72
2022/09/25 09:37:23;;;;;;;9.15;7.60;;;16.10;99.90;;;;;;5178818;28;20056;-72
2022/09/25 09:39:57;;;;;;;9.55;6.85;;;16.10;99.90;;;;;;5197274;28;20017;-72
2022/09/25 09:42:50;;;;;;;12.50;7.40;;;16.20;99.90;;;;;;5196683;28;20030;-72
2022/09/25 09:45:43;;;;;;;10.45;7.53;;;16.20;99.90;;;;;;5172802;28;20502;-72
2022/09/25 09:48:33;;;;;;;9.80;7.50;;;16.00;99.90;;;;;;5195812;28;20025;-73
2022/09/25 09:51:28;;;;;;;11.60;7.78;;;16.20;99.90;;;;;;5194654;28;20037;-72
2022/09/25 09:54:14;;;;;;;9.02;7.72;;;16.00;99.90;;;;;;5194598;28;20041;-73
2022/09/25 09:56:48;;;;;;;9.75;8.10;;;16.10;99.90;;;;;;5190648;28;20037;-73
2022/09/25 09:59:24;;;;;;;9.40;7.38;;;16.20;99.90;;;;;;5195487;28;20238;-72
2022/09/25 10:02:08;;;;;;;10.18;7.57;;;16.30;99.90;;;;;;5196640;28;20033;-72
2022/09/25 10:04:43;;;;;;;10.88;8.00;;;16.40;99.90;;;;;;5174345;28;20044;-72
2022/09/25 10:07:18;;;;;;;13.65;7.45;;;16.30;99.90;;;;;;5195526;28;20043;-72
2022/09/25 10:09:49;;;;;;;;;;;16.30;99.90;;;;;;5196687;28;20037;-72
2022/09/25 10:12:32;;;;;;;11.65;7.70;;;16.20;99.90;;;;;;5196300;28;20355;-72
2022/09/25 10:15:14;;;;;;;9.73;7.70;;;16.20;99.90;;;;;;5188902;28;20038;-72
2022/09/25 10:17:46;;;;;;;9.02;6.88;;;16.20;99.90;;;;;;5197285;28;20383;-72
2022/09/25 10:20:20;;;;;;;10.57;7.35;;;16.30;99.90;;;;;;5191895;28;20041;-72
2022/09/25 10:22:55;;;;;;;;;;;16.30;99.90;;;;;;5197366;28;20040;-72
2022/09/25 10:25:38;;;;;;;12.40;8.57;;;16.40;99.90;;;;;;5196266;28;19909;-72
2022/09/25 10:28:35;;;;;;;11.48;8.70;;;15.90;99.90;;;;;;5196074;28;20063;-72
2022/09/25 10:31:09;;;;;;;12.40;7.85;;;15.80;99.90;;;;;;5197257;28;20502;-72
2022/09/25 10:33:40;;;;;;;9.70;7.80;;;15.60;99.90;;;;;;5196457;28;20026;-73
2022/09/25 10:36:14;;;;;;;11.52;8.40;;;15.60;99.90;;;;;;5191007;28;20033;-72
2022/09/25 10:38:48;;;;;;;11.23;8.30;;;15.60;99.90;;;;;;5184185;28;20392;-72
2022/09/25 10:41:22;;;;;;;;;;;15.80;99.90;;;;;;5189614;28;20029;-72
2022/09/25 10:44:03;;;;;;;11.98;7.85;;;15.90;99.90;;;;;;5189165;28;20373;-72
2022/09/25 10:52:21;;;;;;;12.50;9.23;;;15.70;99.90;;;;;;5184021;28;20029;-72
2022/09/25 10:55:13;;;;;;;13.30;9.07;;;15.60;99.90;;;;;;5187584;28;20330;-72
2022/09/25 10:57:47;;;;;;;12.80;8.43;;;15.40;99.90;;;;;;5182422;28;20369;-72
2022/09/25 11:00:21;;;;;;;13.40;8.95;;;15.50;99.90;;;;;;5193849;28;20034;-72
2022/09/25 11:02:59;;;;;;;9.02;8.13;;;15.50;99.90;;;;;;5193033;28;20060;-71
2022/09/25 11:05:34;;;;;;;10.65;8.77;;;15.70;99.90;;;;;;5184085;28;20358;-72
2022/09/25 11:08:14;;;;;;;15.23;10.07;;;15.70;99.90;;;;;;5195626;28;20018;-72
2022/09/25 11:10:56;;;;;;;11.30;9.18;;;15.60;99.90;;;;;;5189135;28;20035;-71
2022/09/25 11:13:57;;;;;;;11.50;9.13;;;15.70;99.90;;;;;;5188955;28;20026;-72
2022/09/25 11:16:49;;;;;;;10.32;8.18;;;15.80;99.90;;;;;;5191449;28;20306;-72
2022/09/25 11:19:28;;;;;;;9.45;8.15;;;15.80;99.90;;;;;;5194561;28;20024;-71
2022/09/25 11:22:09;;;;;;;10.60;8.45;;;15.90;99.90;;;;;;5191393;28;20040;-72
2022/09/25 11:25:04;;;;;;;9.23;8.15;;;15.80;99.90;;;;;;5193814;28;20041;-73
2022/09/25 11:27:49;;;;;;;10.68;8.57;;;15.90;99.90;;;;;;5198347;28;20041;-72
2022/09/25 11:30:24;;;;;;;10.32;8.27;;;16.10;99.90;;;;;;5187785;28;20029;-71
2022/09/25 11:32:57;;;;;;;8.70;7.15;;;16.10;99.90;;;;;;5194805;28;20021;-71
2022/09/25 11:35:41;;;;;;;10.23;8.18;;;16.00;99.90;;;;;;5193108;28;20471;-72
2022/09/25 11:41:10;;;;;;;12.32;8.98;;;16.20;99.90;;;;;;5197674;28;20048;-72
2022/09/25 11:41:32;;;;;;;10.23;8.10;;;16.50;99.90;;;;;;5192302;28;20026;-73
2022/09/25 11:44:37;;;;;;;10.60;8.50;;;16.90;99.90;;;;;;5195012;28;20044;-73
2022/09/25 11:47:43;;;;;;;10.77;8.82;;;17.00;99.90;;;;;;5198476;28;20017;-72
2022/09/25 11:50:16;;;;;;;9.95;7.15;;;17.20;99.90;;;;;;5181577;28;20036;-72
2022/09/25 11:53:23;;;;;;;13.05;8.65;;;17.70;99.90;;;;;;5196772;28;20034;-72
2022/09/25 11:56:34;;;;;;;9.30;7.63;;;17.50;99.90;;;;;;5154845;28;20072;-74
2022/09/25 11:59:43;;;;;;;11.35;8.80;;;17.80;99.90;;;;;;5197940;28;20025;-73
2022/09/25 12:02:53;;;;;;;10.10;8.70;;;17.80;99.90;;;;;;5198248;28;20041;-73
2022/09/25 12:05:46;;;;;;;10.88;8.68;;;17.50;99.90;;;;;;5154327;28;20048;-73
2022/09/25 12:08:38;;;;;;;10.30;8.30;;;17.20;99.90;;;;;;5170754;28;20044;-74
2022/09/25 12:11:42;;;;;;;11.63;7.82;;;17.30;99.90;;;;;;5196488;28;20194;-73
2022/09/25 12:14:37;;;;;;;11.60;9.63;;;17.50;99.90;;;;;;5191957;28;20051;-73
2022/09/25 12:17:32;;;;;;;13.75;8.88;;;17.30;99.90;;;;;;5201255;28;20033;-73
2022/09/25 12:20:31;;;;;;;11.45;9.07;;;17.10;99.90;;;;;;5198870;28;20048;-73
2022/09/25 12:23:28;;;;;;;11.32;8.98;;;16.80;99.90;;;;;;5200447;28;20096;-75
2022/09/25 12:26:25;;;;;;;12.00;9.07;;;16.70;99.90;;;;;;5197044;28;20032;-74
2022/09/25 12:29:06;;;;;;;9.88;8.80;;;16.70;99.90;;;;;;5179174;28;20036;-73
2022/09/25 12:32:12;;;;;;;13.00;8.82;;;16.60;99.90;;;;;;5189030;28;20413;-73
2022/09/25 12:35:12;;;;;;;13.07;8.80;;;16.50;99.90;;;;;;5195140;28;20037;-74
2022/09/25 12:38:01;;;;;;;12.13;8.85;;;16.70;99.90;;;;;;5188588;28;20282;-73
2022/09/25 12:40:55;;;;;;;10.55;8.15;;;16.90;99.90;;;;;;5199027;28;20411;-73
2022/09/25 12:43:33;;;;;;;11.53;8.00;;;17.00;99.90;;;;;;5201940;28;20036;-72
2022/09/25 12:46:49;;;;;;;10.75;8.85;;;17.10;99.90;;;;;;5184552;28;20029;-73
2022/09/25 12:49:38;;;;;;;8.68;7.70;;;17.40;99.90;;;;;;5138126;28;20696;-73
2022/09/25 12:52:38;;;;;;;8.73;7.43;;;17.80;99.90;;;;;;5139032;28;20062;-73
2022/09/25 12:55:18;;;;;;;14.30;8.13;;;18.20;99.90;;;;;;5123467;28;20556;-72
2022/09/25 12:58:17;;;;;;;9.60;8.00;;;18.10;99.90;;;;;;5120112;29;20418;-73
2022/09/25 13:00:54;;;;;;;8.32;7.45;;;18.30;99.90;;;;;;5130764;28;20049;-73
2022/09/25 13:03:42;;;;;;;11.98;7.25;;;18.40;99.90;;;;;;5138327;28;20042;-76
2022/09/25 13:06:30;;;;;;;9.30;6.88;;;18.40;99.90;;;;;;5107142;28;20055;-73
2022/09/25 13:09:26;;;;;;;8.63;7.00;;;18.10;99.90;;;;;;5112107;28;20463;-73
2022/09/25 13:12:10;;;;;;;7.57;6.68;;;18.20;99.90;;;;;;5128527;28;20030;-74
2022/09/25 13:14:51;;;;;;;7.70;6.70;;;17.70;99.90;;;;;;5129678;28;20047;-72
2022/09/25 13:17:22;;;;;;;8.43;6.28;;;17.90;99.90;;;;;;5118365;28;20027;-73
2022/09/25 13:20:26;;;;;;;8.80;6.88;;;18.10;99.90;;;;;;5153678;28;20029;-73
2022/09/25 13:23:03;;;;;;;9.10;6.75;;;18.60;99.90;;;;;;5200974;28;20047;-75
2022/09/25 13:25:49;;;;;;;10.20;6.45;;;19.70;99.90;;;;;;5201898;28;20025;-73
2022/09/25 13:28:27;;;;;;;10.88;7.10;;;21.20;99.90;;;;;;5196736;28;20036;-73
2022/09/25 13:31:05;;;;;;;9.43;6.15;;;21.40;99.90;;;;;;5198032;28;20032;-72
2022/09/25 13:33:43;;;;;;;7.82;5.07;;;21.40;99.90;;;;;;5197208;28;20035;-73
2022/09/25 13:36:22;;;;;;;7.65;5.47;;;21.60;99.90;;;;;;5196500;28;20021;-73
2022/09/25 13:41:57;;;;;;;7.15;5.85;;;21.50;99.90;;;;;;5186428;28;20037;-75
2022/09/25 13:45:09;;;;;;;8.25;6.50;;;20.60;99.90;;;;;;5197634;28;20029;-75
2022/09/25 13:48:00;;;;;;;6.65;5.95;;;19.40;99.90;;;;;;5159857;28;20044;-74
2022/09/25 13:50:37;;;;;;;8.50;6.70;;;19.00;99.90;;;;;;5193969;28;20016;-72
2022/09/25 13:53:17;;;;;;;7.05;6.35;;;18.60;99.90;;;;;;5190517;28;20037;-73
2022/09/25 13:55:54;;;;;;;8.80;6.70;;;18.20;99.90;;;;;;5195765;28;20045;-72
2022/09/25 13:58:27;;;;;;;7.25;6.03;;;17.70;99.90;;;;;;5181348;28;20028;-72
2022/09/25 14:01:01;;;;;;;8.43;6.78;;;17.70;99.90;;;;;;5179090;28;20028;-73